Time;durP1;ratioP1;P1;durP2;ratioP2;P2;SDS_P1;SDS_P2;PMS_P1;PMS_P2;Temp;Humidity;BMP_temperature;BMP_pressure;BME280_temperature;BME280_humidity;BME280_pressure;Samples;Min_cycle;Max_cycle;Signal;HPM_P1;HPM_P2
2023/10/02 00:00:21;;;;;;;8.28;6.00;;;15.30;96.60;;;;;;922880;149;27353;-84
2023/10/02 00:02:47;;;;;;;9.97;6.47;;;15.20;96.70;;;;;;938038;146;27352;-79
2023/10/02 00:05:40;;;;;;;9.70;6.55;;;15.30;96.90;;;;;;938962;146;27443;-79
2023/10/02 00:07:44;;;;;;;9.93;6.33;;;15.20;97.00;;;;;;924897;149;27403;-80
2023/10/02 00:10:11;;;;;;;8.28;5.65;;;15.30;97.10;;;;;;924533;149;27376;-81
2023/10/02 00:12:36;;;;;;;10.33;5.50;;;15.20;97.10;;;;;;940809;146;27327;-78
2023/10/02 00:15:11;;;;;;;9.48;6.60;;;15.20;97.00;;;;;;925105;149;27367;-79
2023/10/02 00:17:32;;;;;;;8.28;6.37;;;15.20;97.10;;;;;;923588;149;27352;-73
2023/10/02 00:20:05;;;;;;;8.88;5.10;;;15.20;97.10;;;;;;937764;148;27342;-76
2023/10/02 00:22:44;;;;;;;7.60;5.92;;;15.10;97.10;;;;;;937441;148;27301;-73
2023/10/02 00:25:22;;;;;;;9.78;5.78;;;15.10;97.20;;;;;;938749;148;27361;-76
2023/10/02 00:27:51;;;;;;;9.15;6.17;;;15.10;97.10;;;;;;925706;149;27353;-73
2023/10/02 00:30:23;;;;;;;11.00;6.12;;;15.00;97.40;;;;;;938782;146;27351;-74
2023/10/02 00:32:47;;;;;;;10.00;6.28;;;15.00;97.60;;;;;;939873;146;27882;-74
2023/10/02 00:35:14;;;;;;;9.18;6.90;;;15.00;98.00;;;;;;925443;149;27347;-74
2023/10/02 00:37:52;;;;;;;9.23;5.85;;;15.00;98.50;;;;;;925106;149;27397;-73
2023/10/02 00:40:21;;;;;;;8.73;6.23;;;14.90;98.20;;;;;;942844;146;27420;-73
2023/10/02 00:42:45;;;;;;;7.85;6.12;;;14.90;98.20;;;;;;923267;150;27426;-75
2023/10/02 00:45:13;;;;;;;7.62;5.75;;;14.90;98.30;;;;;;937912;148;27385;-73
2023/10/02 00:47:52;;;;;;;9.60;6.70;;;14.80;98.30;;;;;;925025;149;27362;-74
2023/10/02 00:50:22;;;;;;;7.60;5.85;;;14.80;98.50;;;;;;923357;150;27396;-79
2023/10/02 00:52:55;;;;;;;9.10;6.20;;;14.80;98.40;;;;;;943820;146;27404;-73
2023/10/02 00:55:30;;;;;;;9.63;7.37;;;14.70;98.60;;;;;;937611;148;27357;-73
2023/10/02 00:57:57;;;;;;;7.60;5.83;;;14.70;98.80;;;;;;936213;148;27364;-73
2023/10/02 01:00:30;;;;;;;10.32;6.25;;;14.70;99.10;;;;;;925305;149;27417;-73
2023/10/02 01:02:50;;;;;;;8.87;6.07;;;14.60;99.40;;;;;;920902;149;27360;-75
2023/10/02 01:05:16;;;;;;;6.97;5.80;;;14.60;99.50;;;;;;926841;149;27311;-73
2023/10/02 01:07:44;;;;;;;10.13;6.80;;;14.60;99.50;;;;;;927877;149;27860;-76
2023/10/02 01:10:18;;;;;;;9.28;6.28;;;14.60;99.70;;;;;;937929;146;27399;-73
2023/10/02 01:12:43;;;;;;;8.15;6.12;;;14.60;99.90;;;;;;924355;149;27450;-73
2023/10/02 01:15:09;;;;;;;8.47;6.40;;;14.50;99.90;;;;;;924305;149;27296;-73
2023/10/02 01:17:33;;;;;;;8.23;6.03;;;14.50;99.90;;;;;;926290;149;27398;-73
2023/10/02 01:20:01;;;;;;;9.65;6.78;;;14.50;99.90;;;;;;937655;146;27301;-76
2023/10/02 01:22:28;;;;;;;12.05;7.20;;;14.50;99.90;;;;;;940291;146;27359;-74
2023/10/02 01:25:23;;;;;;;10.03;6.25;;;14.50;99.90;;;;;;926802;149;27457;-75
2023/10/02 01:27:40;;;;;;;9.00;6.40;;;14.40;99.90;;;;;;923730;149;27378;-75
2023/10/02 01:30:14;;;;;;;9.83;6.35;;;14.40;99.90;;;;;;936579;146;27332;-75
2023/10/02 01:32:18;;;;;;;8.58;6.15;;;14.40;99.90;;;;;;937954;146;27399;-76
2023/10/02 01:34:47;;;;;;;9.30;6.50;;;14.40;99.90;;;;;;941973;148;27331;-75
2023/10/02 01:40:28;;;;;;;11.63;7.43;;;14.30;99.90;;;;;;961839;145;27295;-76
2023/10/02 01:42:22;;;;;;;7.80;6.13;;;14.30;99.90;;;;;;959786;145;27475;-75
2023/10/02 01:44:55;;;;;;;9.80;6.83;;;14.20;99.90;;;;;;942953;148;27341;-75
2023/10/02 01:47:16;;;;;;;9.25;6.75;;;14.10;99.90;;;;;;941798;148;27449;-75
2023/10/02 01:49:42;;;;;;;8.47;5.93;;;14.10;99.90;;;;;;946232;147;27441;-75
2023/10/02 01:52:11;;;;;;;9.47;6.67;;;14.10;99.90;;;;;;939590;148;27326;-76
2023/10/02 01:54:35;;;;;;;7.73;5.93;;;14.10;99.90;;;;;;939491;148;27881;-76
2023/10/02 01:57:04;;;;;;;9.03;6.60;;;14.00;99.90;;;;;;945069;147;27360;-76
2023/10/02 01:59:28;;;;;;;9.07;6.27;;;14.00;99.90;;;;;;945794;147;27352;-75
2023/10/02 02:01:58;;;;;;;9.43;6.03;;;14.00;99.90;;;;;;960698;145;27365;-75
2023/10/02 02:04:24;;;;;;;7.70;5.83;;;13.90;99.90;;;;;;946323;147;27429;-75
2023/10/02 02:06:56;;;;;;;8.53;6.17;;;13.90;99.90;;;;;;946296;147;27385;-75
2023/10/02 02:09:26;;;;;;;13.50;7.23;;;13.90;99.90;;;;;;943382;148;27400;-76
2023/10/02 02:12:14;;;;;;;8.63;6.07;;;13.80;99.90;;;;;;940993;148;27527;-76
2023/10/02 02:14:49;;;;;;;9.63;6.30;;;13.80;99.90;;;;;;959155;145;27344;-76
2023/10/02 02:17:12;;;;;;;6.83;5.90;;;13.70;99.90;;;;;;960259;145;28188;-76
2023/10/02 02:19:37;;;;;;;6.87;5.50;;;13.70;99.90;;;;;;938102;148;27511;-76
2023/10/02 02:22:03;;;;;;;9.00;6.33;;;13.70;99.90;;;;;;958100;145;27323;-76
2023/10/02 02:24:34;;;;;;;7.80;5.63;;;13.70;99.90;;;;;;946744;147;27344;-75
2023/10/02 02:26:59;;;;;;;7.87;6.07;;;13.70;99.90;;;;;;956268;145;27430;-75
2023/10/02 02:29:26;;;;;;;8.37;6.20;;;13.70;99.90;;;;;;942272;147;27464;-76
2023/10/02 02:31:53;;;;;;;8.23;5.80;;;13.70;99.90;;;;;;940240;148;27418;-75
2023/10/02 02:34:20;;;;;;;8.27;5.97;;;13.70;99.90;;;;;;952126;145;27384;-76
2023/10/02 02:36:49;;;;;;;6.83;5.30;;;13.70;99.90;;;;;;939352;146;27349;-76
2023/10/02 02:39:17;;;;;;;8.47;5.83;;;13.60;99.90;;;;;;925830;149;27456;-75
2023/10/02 02:42:08;;;;;;;8.43;6.17;;;13.60;99.90;;;;;;924115;149;27420;-76
2023/10/02 02:47:07;;;;;;;9.67;6.00;;;13.60;99.90;;;;;;926479;151;27370;-76
2023/10/02 02:49:29;;;;;;;7.17;5.70;;;13.50;99.90;;;;;;926030;149;27388;-75
2023/10/02 02:51:58;;;;;;;6.77;5.00;;;13.50;99.90;;;;;;921093;149;27801;-76
2023/10/02 02:54:28;;;;;;;9.07;6.20;;;13.50;99.90;;;;;;938555;146;27370;-76
2023/10/02 02:57:00;;;;;;;7.03;5.57;;;13.50;99.90;;;;;;928241;149;27394;-76
2023/10/02 02:59:28;;;;;;;8.70;5.33;;;13.50;99.90;;;;;;939707;146;27371;-76
2023/10/02 03:01:51;;;;;;;8.45;6.10;;;13.50;99.90;;;;;;923438;149;27328;-76
2023/10/02 03:04:18;;;;;;;7.90;6.47;;;13.50;99.90;;;;;;924337;149;27468;-76
2023/10/02 03:06:52;;;;;;;9.37;6.00;;;13.50;99.90;;;;;;941189;146;27419;-76
2023/10/02 03:09:23;;;;;;;8.23;5.47;;;13.50;99.90;;;;;;925302;149;27513;-76
2023/10/02 03:11:40;;;;;;;7.00;5.60;;;13.50;99.90;;;;;;924819;149;27368;-77
2023/10/02 03:14:14;;;;;;;8.43;5.90;;;13.50;99.90;;;;;;925968;149;28232;-76
2023/10/02 03:16:44;;;;;;;8.87;5.20;;;13.50;99.90;;;;;;941426;146;27495;-76
2023/10/02 03:19:07;;;;;;;7.80;6.00;;;13.50;99.90;;;;;;922918;149;27334;-76
2023/10/02 03:21:37;;;;;;;7.77;5.57;;;13.50;99.90;;;;;;940800;146;27492;-76
2023/10/02 03:24:01;;;;;;;8.10;6.20;;;13.50;99.90;;;;;;922718;149;27872;-76
2023/10/02 03:29:11;;;;;;;10.10;5.80;;;13.50;99.90;;;;;;941873;146;28070;-77
2023/10/02 03:31:43;;;;;;;8.50;5.67;;;13.40;99.90;;;;;;923762;150;27890;-76
2023/10/02 03:37:25;;;;;;;8.23;6.10;;;13.50;99.90;;;;;;923896;149;27346;-76
2023/10/02 03:42:14;;;;;;;7.87;5.77;;;13.50;99.90;;;;;;924520;149;27438;-76
2023/10/02 03:44:42;;;;;;;7.70;6.13;;;13.50;99.90;;;;;;944041;146;27337;-76
2023/10/02 03:47:12;;;;;;;8.47;5.60;;;13.50;99.90;;;;;;927200;149;27369;-81
2023/10/02 03:49:34;;;;;;;9.73;6.23;;;13.50;99.90;;;;;;939598;147;27333;-78
2023/10/02 03:52:01;;;;;;;8.30;5.93;;;13.60;99.90;;;;;;923252;149;27397;-81
2023/10/02 03:54:29;;;;;;;8.50;5.63;;;13.60;99.90;;;;;;941968;146;27367;-81
2023/10/02 03:56:57;;;;;;;11.13;6.93;;;13.60;99.90;;;;;;940050;146;27289;-82
2023/10/02 03:59:27;;;;;;;11.43;6.42;;;13.60;99.90;;;;;;924851;150;27385;-81
2023/10/02 04:01:53;;;;;;;8.33;5.90;;;13.70;99.90;;;;;;946712;147;27524;-81
2023/10/02 04:04:21;;;;;;;8.10;6.57;;;13.70;99.90;;;;;;946073;147;27417;-76
2023/10/02 04:06:47;;;;;;;8.40;5.47;;;13.70;99.90;;;;;;944626;146;27488;-82
2023/10/02 04:09:13;;;;;;;8.53;6.23;;;13.70;99.90;;;;;;943513;146;27737;-81
2023/10/02 04:11:39;;;;;;;6.50;5.67;;;13.70;99.90;;;;;;925454;149;27457;-81
2023/10/02 04:14:18;;;;;;;10.83;6.30;;;13.70;99.90;;;;;;923429;149;27341;-81
2023/10/02 04:16:48;;;;;;;7.73;5.23;;;13.70;99.90;;;;;;942021;146;27357;-80
2023/10/02 04:19:15;;;;;;;10.23;6.43;;;13.70;99.90;;;;;;925900;149;27465;-77
2023/10/02 04:21:42;;;;;;;9.87;6.50;;;13.60;99.90;;;;;;943234;146;27283;-81
2023/10/02 04:24:09;;;;;;;8.33;6.37;;;13.60;99.90;;;;;;923859;149;27503;-78
2023/10/02 04:26:34;;;;;;;8.50;5.70;;;13.60;99.90;;;;;;940518;146;27349;-81
2023/10/02 04:32:04;;;;;;;8.20;5.83;;;13.60;99.90;;;;;;938626;146;27380;-82
2023/10/02 04:34:29;;;;;;;8.27;6.07;;;13.50;99.90;;;;;;939620;148;27321;-81
2023/10/02 04:36:51;;;;;;;8.20;6.10;;;13.50;99.90;;;;;;930129;150;27399;-81
2023/10/02 04:44:46;;;;;;;7.67;6.27;;;13.40;99.90;;;;;;929353;150;27516;-75
2023/10/02 04:47:18;;;;;;;7.17;5.73;;;13.40;99.90;;;;;;928653;150;27374;-80
2023/10/02 04:50:34;;;;;;;9.60;6.60;;;13.30;99.90;;;;;;929510;150;28032;-81
2023/10/02 04:52:14;;;;;;;8.10;5.87;;;13.30;99.90;;;;;;925080;150;27435;-80
2023/10/02 04:54:38;;;;;;;7.87;5.83;;;13.20;99.90;;;;;;926676;150;27375;-77
2023/10/02 04:57:14;;;;;;;8.40;6.10;;;13.20;99.90;;;;;;927863;150;27423;-77
2023/10/02 04:59:51;;;;;;;8.30;5.57;;;13.20;99.90;;;;;;928819;150;27357;-77
2023/10/02 05:02:20;;;;;;;7.40;6.07;;;13.20;99.90;;;;;;923184;150;27390;-77
2023/10/02 05:04:24;;;;;;;8.43;6.10;;;13.10;99.90;;;;;;923860;150;27321;-76
2023/10/02 05:06:55;;;;;;;8.37;6.60;;;13.20;99.90;;;;;;927115;150;27401;-77
2023/10/02 05:09:25;;;;;;;10.10;6.50;;;13.10;99.90;;;;;;928234;150;27403;-77
2023/10/02 05:12:04;;;;;;;10.23;6.30;;;13.10;99.90;;;;;;927481;150;27367;-77
2023/10/02 05:14:34;;;;;;;8.30;6.13;;;13.10;99.90;;;;;;926070;150;27582;-79
2023/10/02 05:19:57;;;;;;;9.27;5.93;;;13.00;99.90;;;;;;928092;150;27495;-78
2023/10/02 05:22:30;;;;;;;9.17;5.80;;;13.00;99.90;;;;;;931354;150;27412;-78
2023/10/02 05:24:58;;;;;;;8.50;6.50;;;13.00;99.90;;;;;;929105;150;27462;-77
2023/10/02 05:27:29;;;;;;;10.03;6.73;;;13.00;99.90;;;;;;928464;150;27436;-77
2023/10/02 05:29:48;;;;;;;9.53;6.83;;;13.00;99.90;;;;;;917119;151;27436;-77
2023/10/02 05:32:23;;;;;;;11.27;7.00;;;13.00;99.90;;;;;;918872;151;27869;-77
2023/10/02 05:35:16;;;;;;;9.60;7.03;;;13.00;99.90;;;;;;932327;149;27437;-77
2023/10/02 05:37:32;;;;;;;8.83;6.70;;;13.00;99.90;;;;;;927231;149;27415;-78
2023/10/02 05:43:31;;;;;;;7.97;6.13;;;13.00;99.90;;;;;;942355;146;27290;-77
2023/10/02 05:45:17;;;;;;;9.05;6.50;;;13.10;99.90;;;;;;920012;151;27977;-77
2023/10/02 05:47:40;;;;;;;9.23;6.10;;;13.10;99.90;;;;;;927638;149;27452;-77
2023/10/02 05:50:06;;;;;;;8.70;6.77;;;13.20;99.90;;;;;;943616;146;27424;-77
2023/10/02 05:52:35;;;;;;;9.30;6.40;;;13.40;99.90;;;;;;925365;149;27774;-77
2023/10/02 05:54:59;;;;;;;10.13;6.50;;;13.50;99.90;;;;;;949606;146;27425;-77
2023/10/02 05:57:31;;;;;;;8.60;6.47;;;13.70;99.90;;;;;;924048;149;27374;-77
2023/10/02 05:59:54;;;;;;;8.17;6.23;;;14.00;99.90;;;;;;943345;151;27710;-77
2023/10/02 06:02:19;;;;;;;10.63;6.55;;;14.30;99.90;;;;;;945300;147;27439;-77
2023/10/02 06:04:48;;;;;;;8.30;6.17;;;14.60;99.90;;;;;;945561;146;27339;-77
2023/10/02 06:07:19;;;;;;;8.55;5.42;;;14.90;99.90;;;;;;944010;146;27328;-80
2023/10/02 06:09:44;;;;;;;6.90;5.53;;;15.20;99.90;;;;;;949075;146;27438;-78
2023/10/02 06:12:11;;;;;;;6.87;5.12;;;15.40;99.90;;;;;;941523;148;27399;-80
2023/10/02 06:14:42;;;;;;;9.03;5.55;;;15.60;99.90;;;;;;941271;148;27491;-76
2023/10/02 06:17:13;;;;;;;8.60;6.37;;;15.70;99.90;;;;;;942017;148;27470;-79
2023/10/02 06:19:42;;;;;;;7.87;5.55;;;15.80;99.90;;;;;;942105;150;27415;-80
2023/10/02 06:22:06;;;;;;;8.15;5.35;;;15.90;99.90;;;;;;941730;148;27378;-79
2023/10/02 06:24:32;;;;;;;9.03;5.72;;;16.10;99.90;;;;;;940312;148;27733;-77
2023/10/02 06:27:04;;;;;;;8.18;5.40;;;16.20;99.90;;;;;;930000;149;27488;-76
2023/10/02 06:29:28;;;;;;;6.42;5.30;;;16.40;99.90;;;;;;946214;146;27357;-77
2023/10/02 06:31:58;;;;;;;7.75;5.30;;;16.70;99.90;;;;;;942170;146;27316;-78
2023/10/02 06:34:19;;;;;;;8.15;5.28;;;17.00;99.90;;;;;;928120;149;27446;-78
2023/10/02 06:36:48;;;;;;;6.65;5.10;;;17.30;99.90;;;;;;943793;146;27359;-78
2023/10/02 06:39:21;;;;;;;9.48;5.53;;;17.70;99.90;;;;;;927483;149;27369;-77
2023/10/02 06:41:45;;;;;;;7.37;5.55;;;18.10;99.90;;;;;;942952;146;27426;-78
2023/10/02 06:44:16;;;;;;;6.95;5.20;;;18.60;99.90;;;;;;942554;146;27414;-76
2023/10/02 06:46:55;;;;;;;6.42;5.17;;;19.20;99.90;;;;;;943354;146;28164;-78
2023/10/02 06:49:23;;;;;;;6.53;4.95;;;19.80;99.90;;;;;;927147;149;27644;-77
2023/10/02 06:51:49;;;;;;;7.15;5.30;;;20.40;99.90;;;;;;943242;146;27344;-77
2023/10/02 06:54:14;;;;;;;5.20;4.55;;;21.00;99.90;;;;;;944362;146;27355;-79
2023/10/02 06:56:42;;;;;;;7.87;5.62;;;21.60;99.00;;;;;;928165;149;27310;-77
2023/10/02 06:59:09;;;;;;;6.22;5.10;;;22.20;98.30;;;;;;925674;153;27953;-78
2023/10/02 07:01:34;;;;;;;6.28;5.15;;;22.80;97.30;;;;;;944529;146;27380;-78
2023/10/02 07:04:09;;;;;;;7.17;4.80;;;23.40;96.30;;;;;;941966;147;27341;-76
2023/10/02 07:06:28;;;;;;;6.17;5.03;;;24.10;94.20;;;;;;925665;149;27459;-78
2023/10/02 07:09:10;;;;;;;6.20;4.87;;;24.80;91.90;;;;;;926955;149;27380;-77
2023/10/02 07:11:35;;;;;;;6.35;4.95;;;25.40;88.60;;;;;;943804;146;27392;-78
2023/10/02 07:14:03;;;;;;;6.72;4.65;;;26.10;83.00;;;;;;929219;149;27369;-79
2023/10/02 07:16:26;;;;;;;5.87;4.42;;;26.60;80.30;;;;;;943832;146;27423;-79
2023/10/02 07:18:54;;;;;;;6.90;5.20;;;27.10;77.80;;;;;;927790;149;27994;-77
2023/10/02 07:21:19;;;;;;;6.70;5.25;;;27.50;75.70;;;;;;950418;146;27312;-78
2023/10/02 07:23:45;;;;;;;5.40;4.58;;;27.80;73.80;;;;;;941098;148;27329;-76
2023/10/02 07:26:45;;;;;;;6.83;4.70;;;28.20;71.90;;;;;;942459;148;27290;-78
2023/10/02 07:28:53;;;;;;;6.30;4.92;;;28.50;70.10;;;;;;928779;149;27835;-76
2023/10/02 07:31:22;;;;;;;8.10;4.97;;;28.80;68.80;;;;;;927178;151;27372;-76
2023/10/02 07:33:55;;;;;;;6.50;5.53;;;29.00;67.60;;;;;;947953;146;27413;-76
2023/10/02 07:36:16;;;;;;;9.18;4.67;;;29.30;67.40;;;;;;927019;149;26248;-79
2023/10/02 07:38:42;;;;;;;5.83;4.78;;;29.70;67.30;;;;;;947557;147;27381;-78
2023/10/02 07:41:09;;;;;;;7.22;5.08;;;30.10;66.90;;;;;;948918;147;27352;-76
2023/10/02 07:43:35;;;;;;;6.80;4.97;;;30.60;66.00;;;;;;945631;147;27480;-78
2023/10/02 07:46:02;;;;;;;6.35;5.15;;;31.00;64.70;;;;;;950697;147;27356;-76
2023/10/02 07:48:33;;;;;;;6.30;5.22;;;31.50;63.00;;;;;;949283;147;27451;-78
2023/10/02 07:50:55;;;;;;;7.65;5.67;;;31.90;61.50;;;;;;955963;147;27794;-79
2023/10/02 07:53:38;;;;;;;10.10;5.20;;;32.20;60.00;;;;;;964009;145;27404;-78
2023/10/02 07:55:48;;;;;;;7.15;5.33;;;32.50;59.10;;;;;;961831;145;27396;-79
2023/10/02 07:58:17;;;;;;;8.33;5.35;;;32.70;58.60;;;;;;945479;148;27441;-78
2023/10/02 08:00:41;;;;;;;6.95;5.65;;;32.90;57.90;;;;;;957208;146;26267;-76
2023/10/02 08:05:56;;;;;;;5.35;4.67;;;33.50;57.30;;;;;;966918;145;27353;-79
2023/10/02 08:08:20;;;;;;;6.05;4.97;;;33.80;57.10;;;;;;965331;145;27480;-79
2023/10/02 08:10:53;;;;;;;7.42;5.03;;;34.10;56.30;;;;;;964393;145;26258;-79
2023/10/02 08:13:32;;;;;;;6.42;5.37;;;34.40;55.70;;;;;;943566;148;27318;-78
2023/10/02 08:15:45;;;;;;;5.45;4.95;;;34.80;55.30;;;;;;966591;145;26327;-79
2023/10/02 08:18:17;;;;;;;5.55;5.03;;;35.10;54.60;;;;;;966041;145;26233;-78
2023/10/02 08:20:45;;;;;;;6.60;5.30;;;35.40;54.10;;;;;;960424;145;26258;-79
2023/10/02 08:23:22;;;;;;;6.47;5.78;;;35.80;53.60;;;;;;958955;148;26321;-79
2023/10/02 08:25:39;;;;;;;6.40;5.78;;;36.10;53.20;;;;;;962903;145;26238;-78
2023/10/02 08:28:07;;;;;;;8.45;6.37;;;36.30;52.50;;;;;;963326;147;26316;-79
2023/10/02 08:30:36;;;;;;;7.58;6.17;;;36.70;52.20;;;;;;945138;148;26273;-80
2023/10/02 08:33:18;;;;;;;8.08;6.72;;;37.00;51.40;;;;;;961899;145;26361;-80
2023/10/02 08:35:39;;;;;;;7.08;6.05;;;37.20;50.70;;;;;;944208;148;26419;-80
2023/10/02 08:38:07;;;;;;;8.20;6.40;;;37.50;50.40;;;;;;962305;145;26290;-81
2023/10/02 08:40:32;;;;;;;8.08;6.60;;;37.80;50.00;;;;;;944966;148;26364;-80
2023/10/02 08:42:57;;;;;;;8.05;6.35;;;38.00;49.30;;;;;;941053;148;27817;-79
2023/10/02 08:45:24;;;;;;;7.33;5.87;;;38.30;48.90;;;;;;946200;147;26391;-79
2023/10/02 08:47:52;;;;;;;7.50;6.22;;;38.40;48.10;;;;;;965824;145;28069;-79
2023/10/02 08:50:17;;;;;;;7.15;6.40;;;38.50;47.70;;;;;;951195;147;26267;-80
2023/10/02 08:52:52;;;;;;;6.95;6.25;;;38.70;47.10;;;;;;947373;148;26249;-77
2023/10/02 08:55:35;;;;;;;7.08;6.30;;;38.90;46.70;;;;;;959939;145;26246;-80
2023/10/02 08:58:16;;;;;;;7.50;6.20;;;39.00;46.40;;;;;;946695;148;26301;-80
2023/10/02 09:01:37;;;;;;;7.67;5.85;;;39.10;46.20;;;;;;963265;145;26242;-80
2023/10/02 09:03:18;;;;;;;6.62;5.85;;;39.20;45.80;;;;;;929280;147;26298;-76
2023/10/02 09:05:49;;;;;;;7.92;6.17;;;39.30;45.40;;;;;;964874;145;26817;-79
2023/10/02 09:08:15;;;;;;;7.85;6.37;;;39.30;44.90;;;;;;963446;145;26251;-78
2023/10/02 09:10:41;;;;;;;7.30;6.30;;;39.30;44.70;;;;;;947875;147;26304;-80
2023/10/02 09:13:13;;;;;;;8.90;6.78;;;39.30;44.40;;;;;;942133;148;26294;-80
2023/10/02 09:15:44;;;;;;;7.40;6.60;;;39.40;44.10;;;;;;961964;145;26367;-80
2023/10/02 09:18:22;;;;;;;7.70;6.08;;;39.40;43.60;;;;;;946938;148;26331;-79
2023/10/02 09:20:46;;;;;;;8.30;6.33;;;39.30;43.30;;;;;;943043;148;26298;-81
2023/10/02 09:23:13;;;;;;;7.83;6.53;;;39.30;43.10;;;;;;961104;147;26220;-80
2023/10/02 09:25:37;;;;;;;8.30;6.62;;;39.20;42.90;;;;;;954282;146;26252;-80
2023/10/02 09:28:09;;;;;;;7.58;6.40;;;39.00;42.70;;;;;;945528;147;26305;-80
2023/10/02 09:30:36;;;;;;;9.15;6.45;;;38.90;42.70;;;;;;953594;146;26276;-80
2023/10/02 09:33:10;;;;;;;7.35;5.95;;;38.80;42.60;;;;;;946623;147;26400;-80
2023/10/02 09:38:10;;;;;;;6.87;5.80;;;38.40;42.10;;;;;;947157;147;26287;-77
2023/10/02 09:40:58;;;;;;;8.05;6.03;;;38.10;42.10;;;;;;948593;146;26564;-77
2023/10/02 09:43:04;;;;;;;7.37;6.45;;;37.80;41.90;;;;;;933517;148;27777;-77
2023/10/02 09:45:35;;;;;;;7.10;6.05;;;37.60;42.00;;;;;;940995;150;26279;-77
2023/10/02 09:48:05;;;;;;;8.15;6.22;;;37.30;42.10;;;;;;941427;148;28197;-77
2023/10/02 09:50:29;;;;;;;7.95;5.85;;;37.00;42.00;;;;;;929038;150;26335;-77
2023/10/02 09:53:08;;;;;;;7.70;6.12;;;36.60;41.90;;;;;;929546;149;26373;-77
2023/10/02 09:55:42;;;;;;;8.53;6.17;;;36.30;41.70;;;;;;931878;149;26274;-77
2023/10/02 09:58:26;;;;;;;7.45;5.78;;;36.00;41.80;;;;;;928062;149;27794;-77
2023/10/02 10:00:40;;;;;;;6.72;5.50;;;35.50;41.90;;;;;;940081;146;27366;-77
2023/10/02 10:03:23;;;;;;;8.08;6.42;;;35.20;42.00;;;;;;925940;149;26292;-77
2023/10/02 10:06:05;;;;;;;7.62;6.22;;;34.80;42.20;;;;;;928802;150;27500;-77
2023/10/02 10:08:28;;;;;;;6.22;5.53;;;34.50;42.30;;;;;;928755;146;27654;-77
2023/10/02 10:11:10;;;;;;;6.78;5.85;;;34.10;42.30;;;;;;930847;149;27369;-77
2023/10/02 10:13:46;;;;;;;7.67;5.92;;;33.70;42.50;;;;;;926829;150;27383;-77
2023/10/02 10:16:23;;;;;;;7.75;5.87;;;33.30;42.80;;;;;;946004;146;27709;-77
2023/10/02 10:22:01;;;;;;;6.97;5.53;;;32.50;43.50;;;;;;944659;148;27486;-77
2023/10/02 10:25:32;;;;;;;9.18;6.08;;;32.10;43.90;;;;;;942339;148;27346;-77
2023/10/02 10:27:07;;;;;;;8.10;6.28;;;31.70;44.30;;;;;;932426;148;27398;-77
2023/10/02 10:29:41;;;;;;;8.70;6.12;;;31.40;44.60;;;;;;941495;148;27376;-77
2023/10/02 10:32:24;;;;;;;9.28;5.62;;;31.20;45.00;;;;;;929183;150;27376;-77
2023/10/02 10:35:15;;;;;;;7.75;5.65;;;31.00;45.20;;;;;;942686;146;27425;-77
2023/10/02 10:37:46;;;;;;;6.97;5.10;;;30.80;45.40;;;;;;944390;146;27409;-77
2023/10/02 10:40:43;;;;;;;5.97;5.35;;;30.60;45.70;;;;;;927509;149;27485;-77
2023/10/02 10:42:42;;;;;;;6.12;5.25;;;30.40;46.00;;;;;;943392;146;27323;-77
2023/10/02 10:45:03;;;;;;;7.40;5.58;;;30.30;46.10;;;;;;922056;149;27422;-77
2023/10/02 10:47:39;;;;;;;7.28;5.58;;;30.10;46.30;;;;;;928540;149;27369;-77
2023/10/02 10:50:29;;;;;;;8.28;5.53;;;29.90;46.40;;;;;;943608;146;27324;-77
2023/10/02 10:52:44;;;;;;;7.97;6.03;;;29.70;46.50;;;;;;928257;149;27373;-77
2023/10/02 10:55:09;;;;;;;8.28;6.05;;;29.60;46.70;;;;;;929587;149;27355;-77
2023/10/02 10:57:52;;;;;;;6.65;5.15;;;29.40;46.80;;;;;;944139;146;27437;-77
2023/10/02 11:00:24;;;;;;;9.05;5.33;;;29.20;47.10;;;;;;944226;146;27432;-77
2023/10/02 11:03:07;;;;;;;7.25;5.28;;;29.00;47.60;;;;;;948409;146;27433;-77
2023/10/02 11:05:27;;;;;;;6.62;5.10;;;28.80;47.80;;;;;;942126;148;27414;-77
2023/10/02 11:07:55;;;;;;;6.70;5.17;;;28.70;48.00;;;;;;940427;148;27796;-77
2023/10/02 11:10:20;;;;;;;7.42;5.37;;;28.50;48.30;;;;;;943107;148;27482;-77
2023/10/02 11:13:08;;;;;;;6.50;4.72;;;28.50;48.60;;;;;;946292;148;27357;-77
2023/10/02 11:15:47;;;;;;;7.35;4.97;;;28.40;48.70;;;;;;944471;146;27272;-77
2023/10/02 11:18:38;;;;;;;7.10;5.35;;;28.40;49.00;;;;;;944407;146;27365;-77
2023/10/02 11:20:39;;;;;;;6.87;5.67;;;28.30;49.00;;;;;;921694;149;27443;-77
2023/10/02 11:23:06;;;;;;;6.67;5.08;;;28.30;49.20;;;;;;927658;150;27379;-77
2023/10/02 11:25:34;;;;;;;8.13;6.28;;;28.30;49.30;;;;;;943612;146;27699;-77
2023/10/02 11:27:59;;;;;;;8.23;5.25;;;28.30;49.50;;;;;;929960;149;27484;-77
2023/10/02 11:30:32;;;;;;;6.28;5.00;;;28.30;49.60;;;;;;928019;149;27382;-77
2023/10/02 11:33:04;;;;;;;6.33;5.47;;;28.20;49.70;;;;;;945932;146;27452;-77
2023/10/02 11:35:37;;;;;;;9.58;5.55;;;28.20;49.70;;;;;;925763;149;27353;-77
2023/10/02 11:37:57;;;;;;;7.42;5.15;;;28.20;49.70;;;;;;942138;146;27403;-77
2023/10/02 11:40:28;;;;;;;8.08;5.25;;;28.20;49.70;;;;;;932208;149;27418;-77
2023/10/02 11:42:53;;;;;;;6.72;5.17;;;28.20;49.70;;;;;;932987;149;27345;-77
2023/10/02 11:45:20;;;;;;;6.97;5.05;;;28.20;49.70;;;;;;944836;146;27940;-77
2023/10/02 11:47:47;;;;;;;6.08;5.30;;;28.20;50.00;;;;;;944356;146;27333;-77
2023/10/02 11:50:15;;;;;;;7.00;5.33;;;28.10;50.00;;;;;;928193;149;27307;-77
2023/10/02 11:52:40;;;;;;;6.33;5.30;;;28.10;50.30;;;;;;932151;149;27353;-77
2023/10/02 11:55:06;;;;;;;6.85;5.50;;;28.10;50.30;;;;;;944416;146;27914;-77
2023/10/02 11:57:33;;;;;;;7.33;5.60;;;28.10;50.40;;;;;;929916;149;27823;-77
2023/10/02 12:00:08;;;;;;;7.00;5.20;;;28.10;50.40;;;;;;943286;146;27445;-77
2023/10/02 12:02:26;;;;;;;6.62;5.17;;;28.10;50.40;;;;;;942214;146;27261;-77
2023/10/02 12:04:53;;;;;;;6.50;4.90;;;28.10;50.40;;;;;;926553;149;27397;-77
2023/10/02 12:07:19;;;;;;;7.72;5.12;;;28.10;50.50;;;;;;940492;146;27308;-77
2023/10/02 12:09:48;;;;;;;6.62;5.60;;;28.10;50.70;;;;;;943137;146;27409;-77
2023/10/02 12:12:12;;;;;;;8.53;5.50;;;28.10;50.70;;;;;;929445;149;27372;-77
2023/10/02 12:14:39;;;;;;;7.45;4.92;;;28.20;50.50;;;;;;930902;149;27450;-77
2023/10/02 12:17:06;;;;;;;7.03;5.55;;;28.20;50.40;;;;;;940199;146;27504;-77
2023/10/02 12:19:36;;;;;;;8.40;5.50;;;28.30;50.60;;;;;;942989;146;27434;-77
2023/10/02 12:22:00;;;;;;;6.42;5.30;;;28.30;50.50;;;;;;941450;146;27331;-77
2023/10/02 12:24:25;;;;;;;8.20;5.65;;;28.30;50.60;;;;;;928172;149;27341;-77
2023/10/02 12:26:52;;;;;;;6.83;5.50;;;28.30;50.70;;;;;;943245;148;27339;-77
2023/10/02 12:29:19;;;;;;;7.15;5.85;;;28.40;50.80;;;;;;938014;149;27310;-77
2023/10/02 12:31:45;;;;;;;7.83;5.58;;;28.50;50.90;;;;;;940886;146;27936;-77
2023/10/02 12:34:13;;;;;;;7.83;6.28;;;28.50;50.80;;;;;;943629;146;27336;-77
2023/10/02 12:36:38;;;;;;;8.15;5.90;;;28.60;50.60;;;;;;925787;149;27337;-77
2023/10/02 12:39:09;;;;;;;8.43;6.60;;;28.70;51.10;;;;;;930947;149;27462;-77
2023/10/02 12:41:32;;;;;;;8.05;6.55;;;28.80;50.40;;;;;;942182;145;27419;-77
2023/10/02 12:43:59;;;;;;;9.45;6.90;;;28.80;50.10;;;;;;942414;148;27357;-77
2023/10/02 12:46:25;;;;;;;9.93;7.22;;;28.90;49.90;;;;;;944649;148;27324;-77
2023/10/02 12:48:51;;;;;;;10.75;7.67;;;28.90;49.70;;;;;;933556;149;27376;-77
2023/10/02 12:51:19;;;;;;;9.98;7.35;;;28.90;49.60;;;;;;929679;150;27429;-77
2023/10/02 12:53:45;;;;;;;12.50;8.23;;;29.00;49.60;;;;;;942278;148;27347;-77
2023/10/02 12:56:20;;;;;;;10.35;7.37;;;29.00;49.60;;;;;;942629;148;27359;-78
2023/10/02 12:58:44;;;;;;;9.03;6.60;;;29.00;49.40;;;;;;942316;148;27431;-77
2023/10/02 13:01:13;;;;;;;11.35;8.63;;;29.00;49.40;;;;;;929157;150;27326;-77
2023/10/02 13:03:37;;;;;;;10.45;8.08;;;29.10;49.30;;;;;;944643;148;27367;-77
2023/10/02 13:06:04;;;;;;;13.50;8.43;;;29.10;49.00;;;;;;926222;152;27362;-77
2023/10/02 13:08:32;;;;;;;10.45;8.18;;;29.10;48.90;;;;;;922328;151;27393;-82
2023/10/02 13:10:58;;;;;;;11.65;8.33;;;29.10;49.00;;;;;;941506;148;27361;-82
2023/10/02 13:13:24;;;;;;;12.85;8.53;;;29.10;48.70;;;;;;942862;148;27440;-82
2023/10/02 13:15:51;;;;;;;12.75;9.33;;;29.10;48.60;;;;;;942326;150;27686;-82
2023/10/02 13:18:16;;;;;;;12.58;8.70;;;29.20;48.60;;;;;;925498;150;27334;-81
2023/10/02 13:20:43;;;;;;;11.97;8.73;;;29.20;48.50;;;;;;941968;148;27327;-77
2023/10/02 13:23:10;;;;;;;14.55;8.93;;;29.20;48.60;;;;;;941042;148;27493;-81
2023/10/02 13:25:36;;;;;;;12.63;9.15;;;29.30;48.60;;;;;;942130;150;27376;-82
2023/10/02 13:28:03;;;;;;;11.95;8.95;;;29.30;48.40;;;;;;922641;150;27422;-82